createdAt,value
2022-10-18T00:02:04.323Z,2.73
2022-10-18T00:04:34.064Z,2.80
2022-10-18T00:07:02.459Z,2.70
2022-10-18T00:09:30.977Z,3.23
2022-10-18T00:11:59.039Z,2.90
2022-10-18T00:14:27.094Z,3.20
2022-10-18T00:16:55.345Z,4.30
2022-10-18T00:19:25.978Z,3.77
2022-10-18T00:21:58.155Z,3.40
2022-10-18T00:24:26.195Z,3.03
2022-10-18T00:26:54.215Z,3.67
2022-10-18T00:29:22.343Z,3.47
2022-10-18T00:31:50.752Z,3.70
2022-10-18T00:34:19.031Z,3.57
2022-10-18T00:36:47.430Z,3.70
2022-10-18T00:39:19.884Z,4.30
2022-10-18T00:41:49.377Z,4.40
2022-10-18T00:44:55.135Z,4.27
2022-10-18T00:47:23.315Z,4.30
2022-10-18T00:49:53.724Z,4.47
2022-10-18T00:52:25.701Z,4.50
2022-10-18T00:54:57.072Z,5.30
2022-10-18T00:57:26.047Z,4.43
2022-10-18T00:59:54.877Z,5.43
2022-10-18T01:02:23.510Z,5.43
2022-10-18T01:04:51.558Z,5.20
2022-10-18T01:07:34.508Z,4.23
2022-10-18T01:10:12.907Z,4.27
2022-10-18T01:12:51.246Z,3.57
2022-10-18T01:15:25.314Z,3.70
2022-10-18T01:17:59.754Z,4.03
2022-10-18T01:20:58.019Z,2.90
2022-10-18T01:23:56.965Z,3.87
2022-10-18T01:26:38.862Z,3.67
2022-10-18T01:29:15.871Z,3.27
2022-10-18T01:31:47.923Z,3.80
2022-10-18T01:34:18.443Z,3.83
2022-10-18T01:36:49.207Z,3.53
2022-10-18T01:39:19.920Z,4.83
2022-10-18T01:41:48.880Z,4.27
2022-10-18T01:44:20.400Z,4.50
2022-10-18T01:46:51.108Z,4.10
2022-10-18T01:49:19.874Z,4.07
2022-10-18T01:51:48.198Z,4.80
2022-10-18T01:54:19.515Z,5.43
2022-10-18T01:56:53.816Z,4.47
2022-10-18T01:59:32.280Z,4.97
2022-10-18T02:02:19.259Z,3.63
2022-10-18T02:04:53.017Z,4.17
2022-10-18T02:07:28.015Z,4.07
2022-10-18T02:10:02.356Z,4.13
2022-10-18T02:12:32.419Z,4.13
2022-10-18T02:15:02.292Z,3.60
2022-10-18T02:17:32.139Z,3.60
2022-10-18T02:20:01.926Z,5.47
2022-10-18T02:22:32.938Z,4.13
2022-10-18T02:25:04.497Z,4.40
2022-10-18T02:27:33.295Z,4.87
2022-10-18T02:30:01.672Z,5.57
2022-10-18T02:32:36.662Z,5.77
2022-10-18T02:35:08.166Z,5.13
2022-10-18T02:37:39.753Z,5.50
2022-10-18T02:40:10.031Z,6.10
2022-10-18T02:42:40.042Z,4.93
2022-10-18T02:45:10.184Z,4.20
2022-10-18T02:47:39.785Z,5.27
2022-10-18T02:50:08.563Z,4.50
2022-10-18T02:52:36.899Z,4.60
2022-10-18T02:55:06.226Z,5.30
2022-10-18T02:57:35.232Z,5.20
2022-10-18T03:00:04.877Z,5.40
2022-10-18T03:02:33.628Z,4.87
2022-10-18T03:05:03.984Z,4.80
2022-10-18T03:07:32.180Z,4.53
2022-10-18T03:10:00.839Z,4.70
2022-10-18T03:12:28.910Z,4.10
2022-10-18T03:14:57.379Z,3.40
2022-10-18T03:17:25.512Z,3.60
2022-10-18T03:19:53.684Z,2.33
2022-10-18T03:22:23.310Z,3.57
2022-10-18T03:24:51.938Z,11.00
2022-10-18T03:27:19.930Z,3.80
2022-10-18T03:29:47.982Z,3.43
2022-10-18T03:32:16.418Z,3.53
2022-10-18T03:34:44.430Z,10.63
2022-10-18T03:37:13.474Z,9.27
2022-10-18T03:39:42.995Z,5.90
2022-10-18T03:42:11.157Z,4.23
2022-10-18T03:44:39.481Z,3.77
2022-10-18T03:47:07.769Z,3.43
2022-10-18T03:49:36.127Z,3.90
2022-10-18T03:52:04.500Z,3.20
2022-10-18T03:54:33.469Z,4.10
2022-10-18T03:57:03.185Z,4.20
2022-10-18T03:59:34.609Z,3.40
2022-10-18T04:02:07.800Z,4.03
2022-10-18T04:04:38.591Z,3.57
2022-10-18T04:07:09.684Z,3.67
2022-10-18T04:09:41.648Z,3.90
2022-10-18T04:12:12.301Z,3.60
2022-10-18T04:14:40.642Z,4.43
2022-10-18T04:17:09.022Z,4.17
2022-10-18T04:19:37.147Z,5.07
2022-10-18T04:22:05.394Z,3.40
2022-10-18T04:24:33.773Z,5.00
2022-10-18T04:27:02.976Z,4.40
2022-10-18T04:29:38.541Z,4.10
2022-10-18T04:32:07.008Z,4.30
2022-10-18T04:34:38.086Z,3.80
2022-10-18T04:37:07.277Z,3.80
2022-10-18T04:39:35.779Z,3.80
2022-10-18T04:42:04.189Z,4.23
2022-10-18T04:44:34.520Z,3.90
2022-10-18T04:47:04.072Z,4.57
2022-10-18T04:49:33.844Z,4.30
2022-10-18T04:52:03.427Z,3.77
2022-10-18T04:54:31.725Z,3.87
2022-10-18T04:57:00.118Z,4.13
2022-10-18T04:59:29.497Z,3.70
2022-10-18T05:02:00.520Z,4.43
2022-10-18T05:04:29.103Z,4.87
2022-10-18T05:06:57.476Z,4.00
2022-10-18T05:09:26.072Z,4.60
2022-10-18T05:11:56.586Z,4.20
2022-10-18T05:14:24.652Z,4.40
2022-10-18T05:16:52.730Z,3.87
2022-10-18T05:19:22.492Z,4.47
2022-10-18T05:21:50.862Z,4.30
2022-10-18T05:24:21.100Z,4.40
2022-10-18T05:26:51.143Z,4.30
2022-10-18T05:29:19.283Z,4.13
2022-10-18T05:31:47.468Z,4.60
2022-10-18T05:34:15.756Z,4.67
2022-10-18T05:36:49.408Z,5.63
2022-10-18T05:39:19.548Z,5.03
2022-10-18T05:41:53.652Z,5.10
2022-10-18T05:44:22.428Z,5.10
2022-10-18T05:46:50.557Z,5.07
2022-10-18T05:49:19.772Z,5.40
2022-10-18T05:51:51.825Z,4.70
2022-10-18T05:54:23.902Z,4.30
2022-10-18T05:56:51.992Z,3.70
2022-10-18T05:59:20.341Z,5.80
2022-10-18T06:01:48.857Z,5.00
2022-10-18T06:04:17.989Z,5.70
2022-10-18T06:06:46.092Z,5.57
2022-10-18T06:09:16.001Z,4.13
2022-10-18T06:11:44.063Z,4.00
2022-10-18T06:14:13.740Z,3.77
2022-10-18T06:16:42.112Z,3.93
2022-10-18T06:19:10.224Z,3.10
2022-10-18T06:21:40.108Z,4.40
2022-10-18T06:24:08.331Z,3.70
2022-10-18T06:26:38.877Z,4.30
2022-10-18T06:29:07.298Z,3.57
2022-10-18T06:31:35.614Z,4.40
2022-10-18T06:34:11.599Z,4.77
2022-10-18T06:36:41.119Z,5.17
2022-10-18T06:39:12.319Z,3.57
2022-10-18T06:41:41.765Z,3.87
2022-10-18T06:44:14.396Z,3.37
2022-10-18T06:46:44.815Z,3.83
2022-10-18T06:49:16.757Z,4.27
2022-10-18T06:51:48.039Z,4.30
2022-10-18T06:54:18.756Z,3.97
2022-10-18T06:56:48.712Z,4.07
2022-10-18T06:59:20.197Z,4.23
2022-10-18T07:01:49.452Z,4.50
2022-10-18T07:04:17.966Z,3.90
2022-10-18T07:06:50.100Z,3.40
2022-10-18T07:09:18.473Z,3.60
2022-10-18T07:11:48.381Z,3.50
2022-10-18T07:14:18.331Z,2.90
2022-10-18T07:16:46.556Z,2.83
2022-10-18T07:19:16.380Z,3.90
2022-10-18T07:21:44.487Z,4.10
2022-10-18T07:24:16.288Z,3.60
2022-10-18T07:26:46.015Z,3.70
2022-10-18T07:29:17.728Z,4.40
2022-10-18T07:31:47.924Z,3.13
2022-10-18T07:34:20.965Z,3.80
2022-10-18T07:36:51.676Z,3.80
2022-10-18T07:39:22.890Z,3.67
2022-10-18T07:41:55.490Z,3.17
2022-10-18T07:44:27.779Z,3.80
2022-10-18T07:46:58.824Z,3.73
2022-10-18T07:49:30.118Z,3.50
2022-10-18T07:52:04.001Z,4.30
2022-10-18T07:54:33.421Z,4.13
2022-10-18T07:57:10.447Z,4.30
2022-10-18T07:59:41.202Z,3.97
2022-10-18T08:02:10.628Z,3.33
2022-10-18T08:04:40.891Z,4.47
2022-10-18T08:07:10.384Z,4.10
2022-10-18T08:09:43.372Z,3.90
2022-10-18T08:12:12.651Z,3.33
2022-10-18T08:14:42.480Z,3.77
2022-10-18T08:17:16.026Z,3.87
2022-10-18T08:19:52.971Z,4.27
2022-10-18T08:22:34.766Z,3.80
2022-10-18T08:25:02.842Z,4.80
2022-10-18T08:27:31.220Z,3.80
2022-10-18T08:30:03.180Z,4.40
2022-10-18T08:32:32.344Z,5.53
2022-10-18T08:35:02.229Z,4.40
2022-10-18T08:37:32.859Z,3.57
2022-10-18T08:40:02.587Z,3.70
2022-10-18T08:42:41.141Z,4.00
2022-10-18T08:45:30.118Z,3.60
2022-10-18T08:48:01.879Z,4.00
2022-10-18T08:50:35.910Z,4.30
2022-10-18T08:53:14.179Z,3.67
2022-10-18T08:55:52.464Z,4.00
2022-10-18T08:58:21.862Z,4.10
2022-10-18T09:01:01.294Z,4.17
2022-10-18T09:03:42.423Z,4.27
2022-10-18T09:06:22.754Z,3.67
2022-10-18T09:09:05.551Z,4.33
2022-10-18T09:11:49.243Z,3.60
2022-10-18T09:15:01.289Z,3.10
2022-10-18T09:17:38.356Z,3.43
2022-10-18T09:20:21.936Z,4.27
2022-10-18T09:22:55.351Z,4.03
2022-10-18T09:25:26.197Z,4.30
2022-10-18T09:27:59.410Z,4.60
2022-10-18T09:30:59.590Z,3.70
2022-10-18T09:33:40.978Z,4.30
2022-10-18T09:36:19.630Z,4.20
2022-10-18T09:38:53.315Z,3.30
2022-10-18T09:41:29.969Z,3.47
2022-10-18T09:44:03.184Z,3.10
2022-10-18T09:46:37.835Z,3.47
2022-10-18T09:49:16.396Z,3.40
2022-10-18T09:51:46.186Z,3.87
2022-10-18T09:54:24.115Z,4.00
2022-10-18T09:59:50.533Z,3.00
2022-10-18T10:02:23.761Z,3.83
2022-10-18T10:04:56.621Z,3.57
2022-10-18T10:07:36.475Z,3.43
2022-10-18T10:10:11.326Z,2.90
2022-10-18T10:12:41.444Z,2.60
2022-10-18T10:15:24.009Z,2.40
2022-10-18T10:17:59.277Z,2.30
2022-10-18T10:20:32.658Z,2.50
2022-10-18T10:23:09.034Z,2.17
2022-10-18T10:25:39.179Z,2.23
2022-10-18T10:28:16.144Z,2.60
2022-10-18T10:30:48.833Z,3.20
2022-10-18T10:33:43.962Z,3.00
2022-10-18T10:36:20.564Z,2.97
2022-10-18T10:39:06.669Z,2.50
2022-10-18T10:41:36.289Z,3.00
2022-10-18T10:44:09.224Z,2.70
2022-10-18T10:46:40.026Z,2.90
2022-10-18T10:49:38.679Z,2.37
2022-10-18T10:52:22.318Z,2.90
2022-10-18T10:55:05.753Z,2.90
2022-10-18T10:57:39.979Z,2.90
2022-10-18T11:00:39.002Z,3.20
2022-10-18T11:03:27.238Z,3.37
2022-10-18T11:05:57.989Z,3.30
2022-10-18T11:08:28.936Z,3.60
2022-10-18T11:11:02.648Z,2.73
2022-10-18T11:13:41.712Z,2.80
2022-10-18T11:16:14.699Z,3.03
2022-10-18T11:18:45.063Z,3.33
2022-10-18T11:21:14.883Z,3.47
2022-10-18T11:23:49.800Z,2.87
2022-10-18T11:26:42.847Z,2.80
2022-10-18T11:29:38.337Z,3.17
2022-10-18T11:32:19.182Z,2.80
2022-10-18T11:35:03.891Z,3.53
2022-10-18T11:37:45.209Z,2.50
2022-10-18T11:40:43.694Z,3.13
2022-10-18T11:43:16.569Z,2.63
2022-10-18T11:45:51.499Z,2.70
2022-10-18T11:48:55.712Z,2.40
2022-10-18T11:52:03.608Z,3.10
2022-10-18T11:55:04.450Z,2.30
2022-10-18T11:57:54.204Z,2.10
2022-10-18T12:00:40.543Z,3.13
2022-10-18T12:06:19.810Z,2.67
2022-10-18T12:08:52.285Z,2.80
2022-10-18T12:11:27.733Z,2.63
2022-10-18T12:14:06.879Z,3.03
2022-10-18T12:19:35.903Z,2.37
2022-10-18T12:22:13.941Z,2.80
2022-10-18T12:24:42.644Z,2.53
2022-10-18T12:27:15.341Z,2.83
2022-10-18T12:29:50.410Z,2.30
2022-10-18T12:32:21.837Z,2.50
2022-10-18T12:34:54.846Z,3.20
2022-10-18T12:37:53.684Z,2.33
2022-10-18T12:40:25.649Z,2.30
2022-10-18T12:42:56.804Z,2.60
2022-10-18T12:45:33.211Z,2.30
2022-10-18T12:48:04.165Z,2.40
2022-10-18T12:50:37.802Z,2.90
2022-10-18T12:53:13.803Z,2.40
2022-10-18T12:55:46.651Z,3.20
2022-10-18T12:58:29.178Z,2.77
2022-10-18T13:01:05.959Z,2.60
2022-10-18T13:03:53.590Z,2.83
2022-10-18T13:06:28.307Z,2.40
2022-10-18T13:09:22.069Z,2.50
2022-10-18T13:11:53.629Z,2.97
2022-10-18T13:14:53.364Z,2.47
2022-10-18T13:17:44.525Z,2.80
2022-10-18T13:20:27.233Z,2.77
2022-10-18T13:25:56.058Z,2.20
2022-10-18T13:28:34.123Z,2.60
2022-10-18T13:31:15.907Z,2.30
2022-10-18T13:33:46.216Z,2.53
2022-10-18T13:36:25.834Z,2.60
2022-10-18T13:39:17.222Z,2.77
2022-10-18T13:42:25.153Z,2.77
2022-10-18T13:44:53.615Z,2.40
2022-10-18T13:47:37.956Z,2.73
2022-10-18T13:50:33.905Z,2.67
2022-10-18T13:53:38.864Z,2.30
2022-10-18T13:56:49.872Z,3.13
2022-10-18T13:59:28.466Z,2.30
2022-10-18T14:02:50.568Z,2.87
2022-10-18T14:05:29.124Z,2.73
2022-10-18T14:08:06.930Z,3.40
2022-10-18T14:11:00.869Z,2.83
2022-10-18T14:13:54.911Z,2.70
2022-10-18T14:16:31.184Z,2.43
2022-10-18T14:19:12.721Z,2.73
2022-10-18T14:22:07.320Z,2.33
2022-10-18T14:24:37.898Z,2.60
2022-10-18T14:27:14.667Z,2.10
2022-10-18T14:29:44.339Z,2.60
2022-10-18T14:32:25.968Z,2.70
2022-10-18T14:35:09.187Z,2.70
2022-10-18T14:37:47.004Z,2.30
2022-10-18T14:40:35.780Z,2.13
2022-10-18T14:43:08.017Z,2.60
2022-10-18T14:45:43.094Z,2.90
2022-10-18T14:48:16.958Z,2.57
2022-10-18T14:50:49.629Z,2.90
2022-10-18T14:53:25.606Z,3.37
2022-10-18T14:56:01.749Z,2.80
2022-10-18T14:58:30.123Z,2.80
2022-10-18T15:01:00.142Z,2.30
2022-10-18T15:03:28.756Z,2.40
2022-10-18T15:05:59.933Z,2.73
2022-10-18T15:08:36.340Z,2.93
2022-10-18T15:11:13.370Z,2.77
2022-10-18T15:13:50.354Z,2.50
2022-10-18T15:16:22.205Z,2.97
2022-10-18T15:19:07.271Z,3.33
2022-10-18T15:21:46.915Z,2.90
2022-10-18T15:24:28.145Z,3.10
2022-10-18T15:27:01.142Z,2.60
2022-10-18T15:29:36.419Z,2.90
2022-10-18T15:32:17.009Z,3.47
2022-10-18T15:34:46.562Z,3.00
2022-10-18T15:37:25.307Z,3.00
2022-10-18T15:40:19.768Z,3.40
2022-10-18T15:42:52.658Z,3.83
2022-10-18T15:45:36.236Z,4.37
2022-10-18T15:48:26.654Z,4.47
2022-10-18T15:51:07.473Z,4.20
2022-10-18T15:54:10.700Z,3.60
2022-10-18T15:56:43.355Z,4.20
2022-10-18T15:59:29.464Z,3.70
2022-10-18T16:02:00.290Z,3.87
2022-10-18T16:04:34.763Z,4.07
2022-10-18T16:07:07.676Z,4.10
2022-10-18T16:09:37.935Z,3.60
2022-10-18T16:12:06.858Z,2.87
2022-10-18T16:14:44.640Z,3.60
2022-10-18T16:17:17.670Z,3.20
2022-10-18T16:19:47.344Z,3.63
2022-10-18T16:22:18.121Z,3.80
2022-10-18T16:24:46.882Z,3.33
2022-10-18T16:27:18.836Z,3.47
2022-10-18T16:29:58.901Z,5.63
2022-10-18T16:32:30.989Z,3.33
2022-10-18T16:35:07.875Z,3.73
2022-10-18T16:37:38.680Z,3.60
2022-10-18T16:40:25.302Z,4.27
2022-10-18T16:43:00.295Z,3.73
2022-10-18T16:45:33.746Z,3.03
2022-10-18T16:48:05.021Z,3.50
2022-10-18T16:50:35.455Z,4.03
2022-10-18T16:53:04.403Z,2.97
2022-10-18T16:55:36.467Z,3.23
2022-10-18T16:58:19.260Z,2.93
2022-10-18T17:00:59.089Z,3.40
2022-10-18T17:03:32.994Z,3.23
2022-10-18T17:06:01.672Z,3.87
2022-10-18T17:08:31.197Z,3.33
2022-10-18T17:11:02.662Z,3.37
2022-10-18T17:13:31.623Z,3.97
2022-10-18T17:16:24.982Z,3.40
2022-10-18T17:18:53.746Z,3.50
2022-10-18T17:21:25.948Z,4.67
2022-10-18T17:23:54.747Z,4.23
2022-10-18T17:26:30.161Z,3.70
2022-10-18T17:29:08.484Z,3.30
2022-10-18T17:31:38.675Z,3.00
2022-10-18T17:34:07.317Z,2.77
2022-10-18T17:36:38.541Z,3.10
2022-10-18T17:39:07.950Z,2.50
2022-10-18T17:41:38.749Z,2.73
2022-10-18T17:44:11.574Z,2.77
2022-10-18T17:46:47.785Z,2.17
2022-10-18T17:49:17.069Z,2.30
2022-10-18T17:51:46.449Z,2.00
2022-10-18T17:54:14.616Z,3.20
2022-10-18T17:56:42.652Z,2.43
2022-10-18T17:59:10.949Z,3.03
2022-10-18T18:01:42.789Z,2.40
2022-10-18T18:04:11.090Z,3.00
2022-10-18T18:06:41.792Z,3.10
2022-10-18T18:09:12.523Z,2.77
2022-10-18T18:11:45.634Z,2.67
2022-10-18T18:14:16.594Z,3.40
2022-10-18T18:16:47.661Z,2.63
2022-10-18T18:19:17.631Z,3.00
2022-10-18T18:21:46.898Z,3.20
2022-10-18T18:24:16.067Z,2.77
2022-10-18T18:26:46.247Z,3.33
2022-10-18T18:29:14.485Z,2.77
2022-10-18T18:31:43.714Z,3.20
2022-10-18T18:34:14.834Z,2.80
2022-10-18T18:36:46.231Z,2.93
2022-10-18T18:39:22.122Z,2.93
2022-10-18T18:41:51.752Z,5.10
2022-10-18T18:44:21.454Z,3.40
2022-10-18T18:46:49.776Z,3.13
2022-10-18T18:49:19.385Z,3.20
2022-10-18T18:51:47.530Z,3.83
2022-10-18T18:54:16.313Z,3.23
2022-10-18T18:56:44.558Z,3.00
2022-10-18T18:59:13.609Z,3.03
2022-10-18T19:01:42.635Z,3.90
2022-10-18T19:04:11.127Z,4.10
2022-10-18T19:06:42.835Z,4.70
2022-10-18T19:09:19.097Z,3.33
2022-10-18T19:11:48.055Z,3.70
2022-10-18T19:14:16.833Z,3.10
2022-10-18T19:16:47.766Z,3.67
2022-10-18T19:19:18.617Z,3.37
2022-10-18T19:21:51.313Z,3.43
2022-10-18T19:24:19.543Z,3.37
2022-10-18T19:26:49.418Z,3.30
2022-10-18T19:29:21.267Z,3.50
2022-10-18T19:31:50.049Z,3.60
2022-10-18T19:34:19.113Z,4.87
2022-10-18T19:36:50.812Z,4.17
2022-10-18T19:39:20.581Z,4.33
2022-10-18T19:41:49.552Z,5.00
2022-10-18T19:44:18.069Z,4.63
2022-10-18T19:46:46.343Z,6.10
2022-10-18T19:49:14.366Z,4.37
2022-10-18T19:51:42.867Z,5.20
2022-10-18T19:54:12.843Z,4.73
2022-10-18T19:56:42.206Z,4.40
2022-10-18T19:59:11.293Z,5.23
2022-10-18T20:01:39.668Z,4.53
2022-10-18T20:04:08.471Z,4.67
2022-10-18T20:06:37.234Z,5.40
2022-10-18T20:09:05.883Z,4.40
2022-10-18T20:11:35.834Z,3.50
2022-10-18T20:14:05.405Z,4.47
2022-10-18T20:16:34.594Z,4.00
2022-10-18T20:19:04.314Z,4.90
2022-10-18T20:21:35.673Z,5.10
2022-10-18T20:24:04.456Z,5.40
2022-10-18T20:26:32.888Z,6.67
2022-10-18T20:29:02.473Z,6.53
2022-10-18T20:31:32.339Z,6.37
2022-10-18T20:34:02.218Z,5.50
2022-10-18T20:36:31.758Z,4.80
2022-10-18T20:39:00.232Z,5.60
2022-10-18T20:41:30.268Z,4.80
2022-10-18T20:43:59.843Z,4.97
2022-10-18T20:46:32.081Z,5.03
2022-10-18T20:49:00.404Z,5.60
2022-10-18T20:51:29.277Z,5.13
2022-10-18T20:53:57.616Z,4.90
2022-10-18T20:56:27.335Z,5.37
2022-10-18T20:58:56.964Z,5.40
2022-10-18T21:01:27.432Z,5.03
2022-10-18T21:03:59.399Z,5.40
2022-10-18T21:06:28.835Z,5.07
2022-10-18T21:08:58.155Z,5.77
2022-10-18T21:11:27.041Z,4.83
2022-10-18T21:13:57.493Z,5.50
2022-10-18T21:16:25.829Z,5.10
2022-10-18T21:18:54.027Z,5.97
2022-10-18T21:21:24.935Z,5.00
2022-10-18T21:23:53.579Z,5.00
2022-10-18T21:26:23.067Z,5.10
2022-10-18T21:28:51.816Z,6.00
2022-10-18T21:31:22.101Z,4.83
2022-10-18T21:33:54.058Z,5.60
2022-10-18T21:36:23.965Z,4.70
2022-10-18T21:38:52.189Z,4.67
2022-10-18T21:41:21.760Z,5.60
2022-10-18T21:43:51.426Z,4.93
2022-10-18T21:46:20.964Z,5.90
2022-10-18T21:48:50.253Z,5.40
2022-10-18T21:51:20.183Z,5.83
2022-10-18T21:53:51.984Z,5.80
2022-10-18T21:56:21.643Z,5.60
2022-10-18T21:58:49.902Z,6.40
2022-10-18T22:01:19.426Z,6.00
2022-10-18T22:03:49.820Z,5.70
2022-10-18T22:06:18.270Z,5.50
2022-10-18T22:08:50.008Z,5.67
2022-10-18T22:11:18.486Z,6.40
2022-10-18T22:13:46.873Z,5.40
2022-10-18T22:16:16.427Z,6.10
2022-10-18T22:18:45.439Z,6.20
2022-10-18T22:21:15.058Z,6.10
2022-10-18T22:23:44.514Z,6.00
2022-10-18T22:26:15.648Z,6.50
2022-10-18T22:28:45.275Z,6.77
2022-10-18T22:31:17.925Z,5.67
2022-10-18T22:33:46.664Z,5.80
2022-10-18T22:36:15.092Z,6.23
2022-10-18T22:38:43.378Z,6.60
2022-10-18T22:41:14.201Z,6.40
2022-10-18T22:43:42.293Z,5.40
2022-10-18T22:46:12.603Z,6.57
2022-10-18T22:48:41.195Z,8.10
2022-10-18T22:51:09.929Z,7.70
2022-10-18T22:53:39.119Z,6.33
2022-10-18T22:56:07.879Z,6.10
2022-10-18T22:58:37.585Z,5.90
2022-10-18T23:01:07.608Z,5.60
2022-10-18T23:03:36.076Z,5.90
2022-10-18T23:06:04.934Z,5.93
2022-10-18T23:08:33.445Z,7.00
2022-10-18T23:11:01.774Z,7.10
2022-10-18T23:13:29.768Z,7.43
2022-10-18T23:16:04.945Z,6.60
2022-10-18T23:18:33.896Z,6.57
2022-10-18T23:21:03.639Z,6.70
2022-10-18T23:23:34.845Z,7.40
2022-10-18T23:26:04.577Z,6.97
2022-10-18T23:28:35.490Z,6.83
2022-10-18T23:31:09.250Z,7.37
2022-10-18T23:33:37.471Z,6.93
2022-10-18T23:36:06.164Z,7.00
2022-10-18T23:38:35.500Z,6.93
2022-10-18T23:41:03.589Z,6.27
2022-10-18T23:43:31.640Z,5.83
2022-10-18T23:45:59.945Z,5.90
2022-10-18T23:48:29.839Z,6.40
2022-10-18T23:50:58.101Z,7.40
2022-10-18T23:53:26.487Z,5.83
2022-10-18T23:55:56.871Z,7.93
2022-10-18T23:58:25.500Z,6.23
